Aviation Digital Data Service (ADDS)

Output produced by METARs form (1746 UTC 03 June 2015)
found at http://aviationweather.gov/adds/metars/
 
KINT 031737Z 0318/0418 04009KT P6SM OVC008 
     TEMPO 0319/0322 3SM -SHRA BR OVC005 
     FM040200 04009KT 3SM -DZ BR OVC005 
     TEMPO 0407/0411 2SM -DZ OVC003 
     FM041700 04006KT P6SM OVC015